Time;durP1;ratioP1;P1;durP2;ratioP2;P2;SDS_P1;SDS_P2;PMS_P1;PMS_P2;Temp;Humidity;BMP_temperature;BMP_pressure;BME280_temperature;BME280_humidity;BME280_pressure;Samples;Min_cycle;Max_cycle;Signal;HPM_P1;HPM_P2
2022/10/23 00:00:51;;;;;;;11.97;8.00;;;13.00;99.90;;;;;;5110710;27;20500;-70
2022/10/23 00:03:19;;;;;;;14.63;6.73;;;13.00;99.90;;;;;;5109022;28;20453;-68
2022/10/23 00:05:47;;;;;;;18.20;7.70;;;13.00;99.90;;;;;;5110905;27;20553;-70
2022/10/23 00:08:14;;;;;;;16.63;6.87;;;12.90;99.90;;;;;;5114004;28;20951;-68
2022/10/23 00:10:42;;;;;;;12.00;7.00;;;12.90;99.90;;;;;;5112406;28;20682;-71
2022/10/23 00:13:10;;;;;;;15.90;7.40;;;12.90;99.90;;;;;;5109568;27;20461;-68
2022/10/23 00:15:39;;;;;;;11.53;6.90;;;12.90;99.90;;;;;;5114952;28;20845;-68
2022/10/23 00:18:08;;;;;;;11.47;7.33;;;12.90;99.90;;;;;;5109668;28;20820;-68
2022/10/23 00:20:35;;;;;;;14.97;7.30;;;12.90;99.90;;;;;;5111208;28;20861;-68
2022/10/23 00:23:04;;;;;;;14.57;7.03;;;12.80;99.90;;;;;;5111653;28;20871;-69
2022/10/23 00:25:32;;;;;;;11.40;6.30;;;12.80;99.90;;;;;;5101127;27;20514;-68
2022/10/23 00:27:59;;;;;;;10.13;7.60;;;12.80;99.90;;;;;;5111194;28;20513;-68
2022/10/23 00:30:26;;;;;;;12.60;7.60;;;12.80;99.90;;;;;;5112930;28;20561;-71
2022/10/23 00:32:53;;;;;;;9.97;6.40;;;12.80;99.90;;;;;;5111907;28;20457;-70
2022/10/23 00:35:21;;;;;;;15.17;7.33;;;12.80;99.90;;;;;;5113814;28;20464;-68
2022/10/23 00:37:48;;;;;;;9.67;7.47;;;12.80;99.90;;;;;;5110306;28;20457;-69
2022/10/23 00:40:17;;;;;;;12.87;7.27;;;12.70;99.90;;;;;;5108940;27;20477;-68
2022/10/23 00:42:44;;;;;;;9.43;6.70;;;12.70;99.90;;;;;;5115777;27;20464;-69
2022/10/23 00:45:21;;;;;;;12.70;7.70;;;12.70;99.90;;;;;;5117437;27;20460;-68
2022/10/23 00:47:49;;;;;;;12.03;7.40;;;12.60;99.90;;;;;;5113215;27;20478;-69
2022/10/23 00:50:16;;;;;;;13.43;7.03;;;12.60;99.90;;;;;;5110575;27;20457;-67
2022/10/23 00:52:48;;;;;;;11.63;6.97;;;12.70;99.90;;;;;;5117362;27;20456;-69
2022/10/23 00:55:17;;;;;;;8.83;5.80;;;12.80;99.90;;;;;;5111427;27;20545;-68
2022/10/23 00:57:46;;;;;;;9.40;6.70;;;12.80;99.90;;;;;;5114254;27;20465;-70
2022/10/23 01:00:17;;;;;;;9.07;6.77;;;12.80;99.90;;;;;;5118688;27;20480;-68
2022/10/23 01:02:44;;;;;;;8.70;7.17;;;12.80;99.90;;;;;;5118472;27;20469;-68
2022/10/23 01:05:11;;;;;;;10.50;6.10;;;12.80;99.90;;;;;;5117151;27;20876;-70
2022/10/23 01:07:47;;;;;;;11.93;6.57;;;12.80;99.90;;;;;;5115449;27;20463;-67
2022/10/23 01:10:23;;;;;;;10.63;6.50;;;12.90;99.90;;;;;;5112656;27;20857;-68
2022/10/23 01:12:55;;;;;;;13.90;7.50;;;12.90;99.90;;;;;;5113015;27;20460;-70
2022/10/23 01:15:26;;;;;;;9.70;6.87;;;12.90;99.90;;;;;;5113827;27;20457;-68
2022/10/23 01:17:56;;;;;;;8.33;7.50;;;12.80;99.90;;;;;;5114072;27;20460;-68
2022/10/23 01:20:40;;;;;;;9.97;7.20;;;12.80;99.90;;;;;;5120583;27;20483;-68
2022/10/23 01:23:58;;;;;;;11.37;7.30;;;12.80;99.90;;;;;;5105767;27;21009;-68
2022/10/23 01:26:40;;;;;;;9.13;8.10;;;12.90;99.90;;;;;;5115806;27;20491;-68
2022/10/23 01:29:15;;;;;;;12.80;7.80;;;12.90;99.90;;;;;;5114739;27;20455;-70
2022/10/23 01:31:49;;;;;;;8.40;6.70;;;12.90;99.90;;;;;;5112059;27;20464;-71
2022/10/23 01:34:22;;;;;;;10.50;7.50;;;12.90;99.90;;;;;;5114846;27;20853;-67
2022/10/23 01:36:51;;;;;;;17.50;7.93;;;12.90;99.90;;;;;;5113158;27;20495;-68
2022/10/23 01:39:23;;;;;;;11.90;7.23;;;12.90;99.90;;;;;;5109402;27;20476;-68
2022/10/23 01:41:54;;;;;;;10.40;7.83;;;12.90;99.90;;;;;;5114160;27;20461;-67
2022/10/23 01:44:28;;;;;;;14.60;7.10;;;12.90;99.90;;;;;;5113088;27;20991;-67
2022/10/23 01:46:57;;;;;;;16.20;7.83;;;12.90;99.90;;;;;;5110998;27;20464;-70
2022/10/23 01:49:25;;;;;;;13.53;8.00;;;12.90;99.90;;;;;;5115027;27;20462;-68
2022/10/23 01:51:54;;;;;;;13.90;6.90;;;13.00;99.90;;;;;;5117209;27;20469;-68
2022/10/23 01:54:25;;;;;;;11.80;7.53;;;13.00;99.90;;;;;;5114313;27;20480;-70
2022/10/23 01:56:52;;;;;;;11.63;7.00;;;13.00;99.90;;;;;;5113988;27;20472;-68
2022/10/23 01:59:25;;;;;;;11.63;7.83;;;13.00;99.90;;;;;;5107002;27;20977;-68
2022/10/23 02:01:55;;;;;;;11.93;7.83;;;13.00;99.90;;;;;;5112783;27;20548;-67
2022/10/23 02:04:27;;;;;;;7.20;6.50;;;13.00;99.90;;;;;;5117792;27;21125;-70
2022/10/23 02:06:54;;;;;;;17.13;6.97;;;13.00;99.90;;;;;;5110998;27;20453;-68
2022/10/23 02:09:21;;;;;;;11.97;7.87;;;13.10;99.90;;;;;;5114062;27;20810;-67
2022/10/23 02:11:54;;;;;;;18.50;7.00;;;13.10;99.90;;;;;;5112912;27;20872;-68
2022/10/23 02:14:33;;;;;;;22.03;8.43;;;13.10;99.90;;;;;;5110376;27;20594;-67
2022/10/23 02:17:08;;;;;;;19.20;7.87;;;13.10;99.90;;;;;;5112891;27;20477;-68
2022/10/23 02:19:42;;;;;;;21.93;7.90;;;13.10;99.90;;;;;;5115911;27;21080;-67
2022/10/23 02:22:14;;;;;;;25.13;7.90;;;13.10;99.90;;;;;;5110707;27;20450;-68
2022/10/23 02:24:45;;;;;;;23.47;7.33;;;13.10;99.90;;;;;;5113510;27;20460;-68
2022/10/23 02:27:16;;;;;;;11.77;7.27;;;13.10;99.90;;;;;;5103547;27;20503;-68
2022/10/23 02:29:49;;;;;;;10.80;7.80;;;13.00;99.90;;;;;;5113526;27;20472;-67
2022/10/23 02:32:19;;;;;;;14.93;8.10;;;13.10;99.90;;;;;;5113259;27;20536;-69
2022/10/23 02:34:46;;;;;;;14.00;7.73;;;13.10;99.90;;;;;;5116390;27;20827;-67
2022/10/23 02:37:14;;;;;;;13.70;7.87;;;13.10;99.90;;;;;;5118386;27;20456;-68
2022/10/23 02:39:42;;;;;;;17.53;7.90;;;13.20;99.90;;;;;;5111913;27;20494;-71
2022/10/23 02:42:13;;;;;;;11.40;7.20;;;13.20;99.90;;;;;;5114852;27;20473;-68
2022/10/23 02:44:55;;;;;;;12.23;7.33;;;13.20;99.90;;;;;;5115766;27;20475;-67
2022/10/23 02:47:35;;;;;;;11.77;7.20;;;13.20;99.90;;;;;;5112773;27;20469;-67
2022/10/23 02:50:09;;;;;;;18.13;7.40;;;13.20;99.90;;;;;;5112388;27;20476;-70
2022/10/23 02:52:42;;;;;;;11.33;8.00;;;13.20;99.90;;;;;;5113007;27;20525;-68
2022/10/23 02:55:21;;;;;;;11.50;7.97;;;13.30;99.90;;;;;;5109926;27;20461;-68
2022/10/23 02:57:52;;;;;;;10.77;8.43;;;13.30;99.90;;;;;;5115008;27;20472;-67
2022/10/23 03:00:22;;;;;;;16.40;8.70;;;13.30;99.90;;;;;;5114633;27;21140;-71
2022/10/23 03:02:56;;;;;;;17.10;9.10;;;13.30;99.90;;;;;;5106914;27;20469;-71
2022/10/23 03:05:26;;;;;;;14.70;9.27;;;13.30;99.90;;;;;;5109421;27;20488;-68
2022/10/23 03:07:54;;;;;;;16.10;9.13;;;13.40;99.90;;;;;;5111381;27;20544;-68
2022/10/23 03:10:22;;;;;;;13.50;9.70;;;13.30;99.90;;;;;;5115157;27;20457;-69
2022/10/23 03:12:49;;;;;;;18.80;9.10;;;13.30;99.90;;;;;;5114915;27;20464;-70
2022/10/23 03:15:16;;;;;;;12.10;9.77;;;13.40;99.90;;;;;;5109079;27;20471;-68
2022/10/23 03:17:45;;;;;;;10.53;8.57;;;13.30;99.90;;;;;;5116517;27;20453;-69
2022/10/23 03:20:12;;;;;;;13.77;9.10;;;13.40;99.90;;;;;;5109277;27;20511;-68
2022/10/23 03:22:39;;;;;;;11.70;9.60;;;13.40;99.90;;;;;;5112264;27;20478;-68
2022/10/23 03:25:08;;;;;;;15.07;8.83;;;13.40;99.90;;;;;;5116441;27;20459;-68
2022/10/23 03:27:35;;;;;;;9.77;8.37;;;13.50;99.90;;;;;;5110861;27;20492;-67
2022/10/23 03:30:02;;;;;;;9.17;8.30;;;13.50;99.90;;;;;;5109552;27;20472;-68
2022/10/23 03:32:29;;;;;;;11.37;9.20;;;13.50;99.90;;;;;;5111886;27;20453;-69
2022/10/23 03:34:58;;;;;;;15.03;9.57;;;13.50;99.90;;;;;;5114606;27;20460;-68
2022/10/23 03:37:25;;;;;;;10.93;8.90;;;13.50;99.90;;;;;;5114570;27;20967;-68
2022/10/23 03:39:52;;;;;;;16.53;9.83;;;13.40;99.90;;;;;;5112520;27;20512;-69
2022/10/23 03:42:19;;;;;;;12.03;9.60;;;13.40;99.90;;;;;;5113203;27;20457;-68
2022/10/23 03:44:45;;;;;;;16.50;9.57;;;13.30;99.90;;;;;;5113059;27;20560;-68
2022/10/23 03:47:13;;;;;;;19.73;10.53;;;13.30;99.90;;;;;;5109332;27;20468;-68
2022/10/23 03:49:39;;;;;;;14.90;10.20;;;13.30;99.90;;;;;;5111668;27;20474;-67
2022/10/23 03:52:08;;;;;;;18.97;9.97;;;13.30;99.90;;;;;;5112193;27;20449;-68
2022/10/23 03:54:36;;;;;;;22.33;9.90;;;13.20;99.90;;;;;;5111486;27;20459;-68
2022/10/23 03:57:03;;;;;;;13.83;8.77;;;13.30;99.90;;;;;;5114859;27;20460;-70
2022/10/23 03:59:31;;;;;;;9.60;8.60;;;13.30;99.90;;;;;;5115987;27;20952;-70
2022/10/23 04:01:57;;;;;;;19.43;8.67;;;13.20;99.90;;;;;;5111932;27;20504;-68
2022/10/23 04:04:24;;;;;;;11.27;9.43;;;13.20;99.90;;;;;;5112493;27;20481;-70
2022/10/23 04:06:51;;;;;;;10.43;9.33;;;13.30;99.90;;;;;;5101695;27;20479;-71
2022/10/23 04:09:20;;;;;;;14.13;10.60;;;13.20;99.90;;;;;;5103277;28;21476;-71
2022/10/23 04:11:48;;;;;;;18.23;9.17;;;13.20;99.90;;;;;;5108535;28;20456;-69
2022/10/23 04:14:15;;;;;;;16.33;9.50;;;13.20;99.90;;;;;;5111560;28;20532;-68
2022/10/23 04:16:42;;;;;;;17.87;9.63;;;13.20;99.90;;;;;;5109763;27;20456;-68
2022/10/23 04:19:09;;;;;;;8.67;7.77;;;13.20;99.90;;;;;;5111292;27;20457;-70
2022/10/23 04:21:36;;;;;;;17.07;9.80;;;13.20;99.90;;;;;;5112109;27;20510;-68
2022/10/23 04:24:04;;;;;;;14.83;8.70;;;13.20;99.90;;;;;;5110055;27;20460;-68
2022/10/23 04:26:32;;;;;;;16.77;8.30;;;13.20;99.90;;;;;;5115241;27;20485;-68
2022/10/23 04:28:59;;;;;;;17.37;8.57;;;13.20;99.90;;;;;;5115557;27;20453;-68
2022/10/23 04:31:26;;;;;;;10.93;8.90;;;13.30;99.90;;;;;;5109569;27;20518;-69
2022/10/23 04:33:54;;;;;;;18.30;9.20;;;13.30;99.90;;;;;;5117846;27;20456;-70
2022/10/23 04:36:21;;;;;;;15.67;8.70;;;13.30;99.90;;;;;;5117260;27;20475;-69
2022/10/23 04:38:48;;;;;;;13.33;10.43;;;13.20;99.90;;;;;;5117183;27;20460;-68
2022/10/23 04:41:15;;;;;;;13.03;8.57;;;13.20;99.90;;;;;;5116191;27;20496;-70
2022/10/23 04:43:43;;;;;;;11.43;9.33;;;13.20;99.90;;;;;;5114436;27;20513;-69
2022/10/23 04:46:10;;;;;;;13.23;10.33;;;13.20;99.90;;;;;;5107949;27;20907;-70
2022/10/23 04:48:37;;;;;;;19.73;8.60;;;13.20;99.90;;;;;;5112202;27;20521;-68
2022/10/23 04:51:05;;;;;;;11.83;9.27;;;13.20;99.90;;;;;;5115371;27;20452;-69
2022/10/23 04:53:33;;;;;;;17.63;9.77;;;13.10;99.90;;;;;;5114187;27;20473;-68
2022/10/23 04:56:01;;;;;;;10.90;9.50;;;13.10;99.90;;;;;;5115108;27;20493;-71
2022/10/23 04:58:29;;;;;;;19.10;9.73;;;13.10;99.90;;;;;;5116569;27;20971;-68
2022/10/23 05:00:58;;;;;;;19.87;8.73;;;13.10;99.90;;;;;;5113052;27;20538;-68
2022/10/23 05:03:25;;;;;;;28.13;10.13;;;13.10;99.90;;;;;;5113779;27;20521;-68
2022/10/23 05:05:54;;;;;;;13.77;9.73;;;13.10;99.90;;;;;;5110538;27;20956;-70
2022/10/23 05:08:21;;;;;;;15.57;9.70;;;13.10;99.90;;;;;;5110894;27;20488;-69
2022/10/23 05:10:49;;;;;;;12.43;9.20;;;13.10;99.90;;;;;;5114768;27;20825;-68
2022/10/23 05:13:18;;;;;;;13.53;9.50;;;13.10;99.90;;;;;;5114642;27;20507;-69
2022/10/23 05:15:46;;;;;;;17.80;9.30;;;13.00;99.90;;;;;;5111515;27;20452;-71
2022/10/23 05:18:20;;;;;;;18.80;9.30;;;13.00;99.90;;;;;;5116797;27;20885;-68
2022/10/23 05:20:50;;;;;;;25.77;8.90;;;13.00;99.90;;;;;;5112158;27;20485;-68
2022/10/23 05:23:20;;;;;;;13.40;9.57;;;12.90;99.90;;;;;;5113425;27;20461;-71
2022/10/23 05:25:48;;;;;;;11.37;10.27;;;12.90;99.90;;;;;;5113752;27;20529;-68
2022/10/23 05:28:15;;;;;;;16.77;10.10;;;12.90;99.90;;;;;;5110654;27;20568;-69
2022/10/23 05:30:42;;;;;;;12.73;8.03;;;12.90;99.90;;;;;;5108508;27;20465;-68
2022/10/23 05:33:10;;;;;;;22.07;9.83;;;12.80;99.90;;;;;;5109393;27;20449;-70
2022/10/23 05:35:39;;;;;;;14.93;9.73;;;12.80;99.90;;;;;;5113996;27;20457;-68
2022/10/23 05:38:07;;;;;;;10.60;8.53;;;12.80;99.90;;;;;;5114295;27;20469;-68
2022/10/23 05:40:34;;;;;;;12.83;9.40;;;12.80;99.90;;;;;;5115529;27;20978;-69
2022/10/23 05:43:02;;;;;;;11.70;9.37;;;12.80;99.90;;;;;;5111368;27;20573;-69
2022/10/23 05:45:29;;;;;;;9.67;8.73;;;12.70;99.90;;;;;;5112197;27;20495;-69
2022/10/23 05:47:55;;;;;;;10.00;9.00;;;12.60;99.90;;;;;;5113846;27;20510;-68
2022/10/23 05:50:22;;;;;;;20.70;10.70;;;12.60;99.90;;;;;;5112458;27;21004;-69
2022/10/23 05:52:51;;;;;;;14.70;10.23;;;12.60;99.90;;;;;;5107586;27;20467;-69
2022/10/23 05:55:19;;;;;;;23.97;10.00;;;12.60;99.90;;;;;;5112513;27;20888;-69
2022/10/23 05:57:46;;;;;;;15.20;9.50;;;12.60;99.90;;;;;;5113884;27;20461;-68
2022/10/23 06:00:13;;;;;;;16.67;9.83;;;12.70;99.90;;;;;;5111344;27;20461;-68
2022/10/23 06:02:40;;;;;;;13.83;8.93;;;12.60;99.90;;;;;;5108198;27;20896;-69
2022/10/23 06:05:07;;;;;;;15.33;9.00;;;12.60;99.90;;;;;;5107847;27;20485;-71
2022/10/23 06:07:34;;;;;;;11.33;10.00;;;12.60;99.90;;;;;;5112857;27;20966;-69
2022/10/23 06:10:03;;;;;;;11.20;9.73;;;12.50;99.90;;;;;;5114131;27;20475;-72
2022/10/23 06:12:31;;;;;;;14.97;9.10;;;12.50;99.90;;;;;;5106705;27;20839;-71
2022/10/23 06:14:58;;;;;;;36.67;11.93;;;12.50;99.90;;;;;;5105684;27;20537;-70
2022/10/23 06:17:25;;;;;;;13.20;9.10;;;12.50;99.90;;;;;;5111780;27;20905;-69
2022/10/23 06:19:52;;;;;;;11.80;9.50;;;12.50;99.90;;;;;;5106048;27;21011;-69
2022/10/23 06:22:20;;;;;;;10.70;9.60;;;12.50;99.90;;;;;;5108346;27;20484;-69
2022/10/23 06:24:47;;;;;;;17.30;10.10;;;12.50;99.90;;;;;;5105869;27;20484;-71
2022/10/23 06:27:14;;;;;;;14.70;8.90;;;12.50;99.90;;;;;;5112001;27;20867;-69
2022/10/23 06:29:41;;;;;;;19.60;10.87;;;12.50;99.90;;;;;;5105550;27;20535;-71
2022/10/23 06:32:08;;;;;;;17.20;9.33;;;12.50;99.90;;;;;;5109274;27;20456;-71
2022/10/23 06:34:35;;;;;;;13.87;10.13;;;12.60;99.90;;;;;;5107948;27;20897;-69
2022/10/23 06:37:02;;;;;;;12.87;10.87;;;12.50;99.90;;;;;;5111188;27;20453;-69
2022/10/23 06:39:28;;;;;;;14.10;8.80;;;12.60;99.90;;;;;;5109608;27;20472;-68
2022/10/23 06:41:55;;;;;;;18.90;9.80;;;12.60;99.90;;;;;;5116255;27;20843;-68
2022/10/23 06:44:23;;;;;;;24.00;8.90;;;12.60;99.90;;;;;;5110120;27;20821;-71
2022/10/23 06:46:50;;;;;;;13.97;9.17;;;12.60;99.90;;;;;;5108910;27;20457;-70
2022/10/23 06:49:17;;;;;;;33.87;10.33;;;12.60;99.90;;;;;;5111677;27;20584;-68
2022/10/23 06:51:44;;;;;;;12.73;9.80;;;12.60;99.90;;;;;;5112037;27;20522;-68
2022/10/23 06:54:11;;;;;;;15.60;9.13;;;12.60;99.90;;;;;;5111661;27;20526;-68
2022/10/23 06:56:38;;;;;;;13.50;8.80;;;12.70;99.90;;;;;;5111462;27;20458;-69
2022/10/23 06:59:07;;;;;;;14.53;10.27;;;12.70;99.90;;;;;;5109246;27;20999;-68
2022/10/23 07:01:35;;;;;;;26.17;10.53;;;12.70;99.90;;;;;;5108372;27;20546;-68
2022/10/23 07:04:02;;;;;;;20.50;10.00;;;12.70;99.90;;;;;;5107812;27;21032;-68
2022/10/23 07:06:29;;;;;;;32.93;10.23;;;12.70;99.90;;;;;;5108672;27;20465;-70
2022/10/23 07:08:55;;;;;;;10.43;8.40;;;12.70;99.90;;;;;;5105638;27;20465;-69
2022/10/23 07:11:22;;;;;;;18.60;9.30;;;12.80;99.90;;;;;;5106067;27;20465;-69
2022/10/23 07:13:49;;;;;;;12.57;8.30;;;12.90;99.90;;;;;;5106205;27;20460;-69
2022/10/23 07:16:18;;;;;;;12.33;8.50;;;12.90;99.90;;;;;;5109652;27;20441;-72
2022/10/23 07:18:48;;;;;;;10.00;8.60;;;13.00;99.90;;;;;;5112582;27;20457;-68
2022/10/23 07:21:15;;;;;;;10.30;8.87;;;13.00;99.90;;;;;;5107689;27;20457;-69
2022/10/23 07:23:42;;;;;;;20.37;11.03;;;13.10;99.90;;;;;;5096539;27;20737;-70
2022/10/23 07:26:13;;;;;;;15.07;8.80;;;13.20;99.90;;;;;;5106183;27;20717;-69
2022/10/23 07:28:41;;;;;;;15.10;9.10;;;13.30;99.90;;;;;;5105252;27;20491;-70
2022/10/23 07:31:08;;;;;;;15.13;8.77;;;13.30;99.90;;;;;;5111484;27;20614;-69
2022/10/23 07:33:34;;;;;;;9.80;7.97;;;13.30;99.90;;;;;;5106177;27;20469;-69
2022/10/23 07:36:04;;;;;;;14.07;7.97;;;13.40;99.90;;;;;;5110322;27;20951;-69
2022/10/23 07:38:31;;;;;;;32.43;9.10;;;13.50;99.90;;;;;;5109042;27;20457;-69
2022/10/23 07:40:59;;;;;;;13.23;8.73;;;13.60;99.90;;;;;;5107200;27;20464;-72
2022/10/23 07:43:26;;;;;;;18.47;8.20;;;13.70;99.90;;;;;;5110436;27;20501;-69
2022/10/23 07:45:53;;;;;;;14.33;7.90;;;13.70;99.90;;;;;;5113848;27;20527;-70
2022/10/23 07:48:22;;;;;;;11.87;7.37;;;13.90;99.90;;;;;;5111855;27;20460;-71
2022/10/23 07:50:49;;;;;;;16.07;8.40;;;14.00;99.90;;;;;;5110364;27;20817;-69
2022/10/23 07:53:20;;;;;;;15.33;7.97;;;14.10;99.90;;;;;;5104365;27;20861;-72
2022/10/23 07:55:53;;;;;;;8.57;7.73;;;14.30;99.90;;;;;;5097021;28;21012;-69
2022/10/23 07:58:20;;;;;;;22.60;8.80;;;14.40;99.90;;;;;;5104493;28;20552;-71
2022/10/23 08:00:51;;;;;;;17.30;8.80;;;14.50;99.90;;;;;;5105178;28;20501;-68
2022/10/23 08:03:19;;;;;;;9.60;8.73;;;14.60;99.90;;;;;;5111623;27;20516;-69
2022/10/23 08:05:46;;;;;;;11.40;8.77;;;14.80;99.90;;;;;;5107282;28;20465;-72
2022/10/23 08:08:13;;;;;;;10.40;8.57;;;14.90;99.90;;;;;;5109012;27;20460;-69
2022/10/23 08:10:41;;;;;;;20.80;9.60;;;15.20;99.90;;;;;;5109402;28;20601;-69
2022/10/23 08:13:12;;;;;;;13.63;9.00;;;15.40;99.90;;;;;;5111180;28;20461;-70
2022/10/23 08:15:38;;;;;;;13.00;8.77;;;15.50;99.90;;;;;;5106962;28;20982;-70
2022/10/23 08:18:06;;;;;;;15.43;9.27;;;15.60;99.90;;;;;;5109585;28;20453;-70
2022/10/23 08:20:37;;;;;;;86.70;49.57;;;15.90;99.90;;;;;;5108776;28;20693;-71
2022/10/23 08:23:03;;;;;;;36.90;23.60;;;15.80;99.90;;;;;;5105351;28;20493;-69
2022/10/23 08:25:30;;;;;;;18.20;12.63;;;15.90;99.90;;;;;;5107059;28;20464;-69
2022/10/23 08:27:58;;;;;;;15.27;11.23;;;16.00;99.90;;;;;;5108183;28;20512;-70
2022/10/23 08:30:25;;;;;;;17.67;12.67;;;16.20;99.90;;;;;;5099130;28;20468;-69
2022/10/23 08:32:52;;;;;;;20.60;12.60;;;16.30;99.90;;;;;;5108804;28;20709;-71
2022/10/23 08:35:18;;;;;;;17.10;11.57;;;16.30;99.90;;;;;;5111308;28;20487;-71
2022/10/23 08:37:46;;;;;;;12.63;11.40;;;16.50;99.90;;;;;;5109205;28;20468;-69
2022/10/23 08:40:15;;;;;;;17.50;11.93;;;16.70;99.90;;;;;;5111565;28;20465;-71
2022/10/23 08:42:46;;;;;;;13.10;10.70;;;16.80;99.90;;;;;;5109152;28;20484;-70
2022/10/23 08:45:27;;;;;;;12.43;11.30;;;17.00;99.90;;;;;;5104124;28;20446;-70
2022/10/23 08:47:58;;;;;;;12.57;11.30;;;17.10;99.90;;;;;;5098315;28;20580;-70
2022/10/23 08:50:28;;;;;;;21.80;14.07;;;17.10;99.90;;;;;;5107954;28;20817;-69
2022/10/23 08:53:00;;;;;;;16.57;12.47;;;17.30;99.90;;;;;;5106572;28;20613;-69
2022/10/23 08:55:31;;;;;;;12.17;11.40;;;17.20;99.90;;;;;;5106265;28;20456;-69
2022/10/23 08:58:03;;;;;;;13.07;11.80;;;17.20;99.90;;;;;;5107411;28;20838;-69
2022/10/23 09:00:32;;;;;;;12.57;11.00;;;17.50;99.90;;;;;;5102199;28;20466;-70
2022/10/23 09:03:02;;;;;;;12.80;11.90;;;17.80;99.90;;;;;;5104594;27;20493;-69
2022/10/23 09:05:35;;;;;;;11.87;11.07;;;17.90;99.90;;;;;;5108262;27;20458;-70
2022/10/23 09:08:16;;;;;;;13.87;12.47;;;18.10;99.90;;;;;;5107152;27;20471;-69
2022/10/23 09:11:03;;;;;;;18.97;12.30;;;18.10;99.90;;;;;;5111031;27;20475;-69
2022/10/23 09:14:08;;;;;;;13.27;12.10;;;18.10;99.90;;;;;;5102093;27;20529;-70
2022/10/23 09:16:50;;;;;;;12.70;11.53;;;18.10;99.90;;;;;;5108969;27;20518;-70
2022/10/23 09:19:19;;;;;;;13.33;12.20;;;18.20;99.90;;;;;;5096781;27;20726;-72
2022/10/23 09:21:49;;;;;;;13.20;12.07;;;18.30;99.90;;;;;;5105631;27;20464;-70
2022/10/23 09:24:17;;;;;;;13.97;12.60;;;18.50;99.90;;;;;;5111951;27;21042;-70
2022/10/23 09:26:48;;;;;;;13.97;12.67;;;18.60;99.90;;;;;;5110348;27;21264;-69
2022/10/23 09:29:22;;;;;;;14.03;12.70;;;18.90;99.90;;;;;;5100939;27;20484;-72
2022/10/23 09:31:52;;;;;;;14.80;13.33;;;19.20;99.90;;;;;;5108483;27;20539;-71
2022/10/23 09:34:21;;;;;;;17.10;13.00;;;19.30;99.90;;;;;;5109043;27;20512;-70
2022/10/23 09:36:53;;;;;;;13.30;12.50;;;19.30;99.90;;;;;;5108742;27;20544;-71
2022/10/23 09:39:28;;;;;;;14.73;13.20;;;19.50;99.90;;;;;;5108465;27;21003;-70
2022/10/23 09:41:55;;;;;;;15.30;13.87;;;19.60;99.90;;;;;;5105724;27;21032;-70
2022/10/23 09:44:24;;;;;;;13.80;12.80;;;19.70;99.90;;;;;;5102404;27;20468;-70
2022/10/23 09:46:53;;;;;;;15.40;14.30;;;19.60;99.90;;;;;;5111613;27;20458;-72
2022/10/23 09:49:23;;;;;;;14.00;13.03;;;19.80;99.90;;;;;;5108843;27;20460;-70
2022/10/23 09:52:01;;;;;;;15.47;14.10;;;19.90;99.90;;;;;;5105246;27;20813;-71
2022/10/23 09:54:29;;;;;;;14.80;13.70;;;20.00;99.90;;;;;;5107127;27;20461;-69
2022/10/23 09:57:03;;;;;;;14.40;13.30;;;19.90;99.90;;;;;;5106795;27;20466;-71
2022/10/23 09:59:32;;;;;;;14.57;13.50;;;20.00;99.90;;;;;;5107449;27;20465;-69
2022/10/23 10:02:03;;;;;;;14.17;13.17;;;20.00;99.90;;;;;;5105084;27;20763;-69
2022/10/23 10:04:35;;;;;;;14.03;12.90;;;19.90;99.90;;;;;;5106091;27;20888;-69
2022/10/23 10:07:05;;;;;;;14.53;13.53;;;20.00;99.90;;;;;;5111651;27;20450;-68
2022/10/23 10:09:33;;;;;;;24.50;14.60;;;20.10;99.90;;;;;;5109546;27;20457;-72
2022/10/23 10:12:21;;;;;;;14.80;13.57;;;20.20;99.90;;;;;;5111906;27;20561;-72
2022/10/23 10:14:59;;;;;;;14.00;13.10;;;20.10;99.90;;;;;;5087632;27;20453;-68
2022/10/23 10:17:36;;;;;;;14.97;13.83;;;20.10;99.90;;;;;;5109079;27;20456;-69
2022/10/23 10:20:18;;;;;;;14.10;13.20;;;20.20;99.90;;;;;;5113712;27;20480;-71
2022/10/23 10:22:53;;;;;;;15.37;13.43;;;20.20;99.90;;;;;;5108332;27;20901;-69
2022/10/23 10:25:25;;;;;;;15.50;14.17;;;20.10;99.90;;;;;;5113246;27;20959;-69
2022/10/23 10:28:05;;;;;;;14.30;13.40;;;19.90;99.90;;;;;;5106041;27;20477;-72
2022/10/23 10:30:42;;;;;;;14.70;13.60;;;19.90;99.90;;;;;;5110758;27;20457;-70
2022/10/23 10:33:18;;;;;;;14.93;13.93;;;19.80;99.90;;;;;;5111057;27;20504;-68
2022/10/23 10:35:51;;;;;;;13.83;12.47;;;19.60;99.90;;;;;;5111672;27;20677;-68
2022/10/23 10:38:47;;;;;;;15.33;14.53;;;19.60;99.90;;;;;;5112241;27;20461;-68
2022/10/23 10:41:44;;;;;;;14.20;13.10;;;19.60;99.90;;;;;;5100014;28;20801;-68
2022/10/23 10:44:34;;;;;;;19.90;13.10;;;19.50;99.90;;;;;;5094474;27;20899;-69
2022/10/23 10:47:11;;;;;;;13.37;12.47;;;19.40;99.90;;;;;;5109763;27;20457;-69
2022/10/23 10:49:47;;;;;;;14.03;13.10;;;19.50;99.90;;;;;;5113545;27;20465;-69
2022/10/23 10:52:19;;;;;;;14.10;13.20;;;19.60;99.90;;;;;;5109610;27;20460;-69
2022/10/23 10:54:58;;;;;;;15.07;13.13;;;19.40;99.90;;;;;;5111561;27;20869;-69
2022/10/23 10:57:34;;;;;;;35.67;32.17;;;19.30;99.90;;;;;;5112056;27;20456;-67
2022/10/23 11:00:04;;;;;;;15.10;14.13;;;19.10;99.90;;;;;;5113133;27;20457;-71
2022/10/23 11:02:38;;;;;;;13.77;12.70;;;19.00;99.90;;;;;;5110839;27;20927;-71
2022/10/23 11:05:16;;;;;;;14.27;12.80;;;19.10;99.90;;;;;;5108965;27;20494;-69
2022/10/23 11:07:55;;;;;;;13.50;12.33;;;19.10;99.90;;;;;;5110293;27;20456;-68
2022/10/23 11:10:21;;;;;;;13.77;12.77;;;19.10;99.90;;;;;;5112064;27;20461;-71
2022/10/23 11:12:49;;;;;;;13.67;12.77;;;19.00;99.90;;;;;;5112395;27;20510;-69
2022/10/23 11:15:20;;;;;;;13.33;12.33;;;18.90;99.90;;;;;;5110731;27;20959;-71
2022/10/23 11:17:50;;;;;;;14.37;12.93;;;18.80;99.90;;;;;;5110310;27;20472;-71
2022/10/23 11:20:45;;;;;;;13.50;12.70;;;18.80;99.90;;;;;;5110863;27;20521;-69
2022/10/23 11:23:32;;;;;;;13.80;12.70;;;18.80;99.90;;;;;;5106232;27;20489;-69
2022/10/23 11:26:14;;;;;;;12.93;12.03;;;18.80;99.90;;;;;;5113374;27;20456;-69
2022/10/23 11:28:56;;;;;;;14.17;13.03;;;19.00;99.90;;;;;;5113862;27;20484;-70
2022/10/23 11:31:32;;;;;;;14.17;12.97;;;19.30;99.90;;;;;;5111854;27;20661;-73
2022/10/23 11:34:33;;;;;;;14.40;12.87;;;19.40;99.90;;;;;;5111170;27;20487;-72
2022/10/23 11:37:03;;;;;;;14.63;12.80;;;19.90;99.90;;;;;;5109066;27;20476;-71
2022/10/23 11:39:32;;;;;;;14.30;12.83;;;20.60;99.90;;;;;;5110779;27;20485;-73
2022/10/23 11:42:11;;;;;;;14.97;13.50;;;20.80;99.90;;;;;;5111150;27;20958;-72
2022/10/23 11:44:44;;;;;;;14.77;13.60;;;20.90;99.90;;;;;;5107723;27;21022;-71
2022/10/23 11:47:34;;;;;;;13.77;12.50;;;21.10;99.90;;;;;;5107907;27;21006;-70
2022/10/23 11:50:27;;;;;;;15.90;13.40;;;21.30;99.90;;;;;;5104869;27;20822;-70
2022/10/23 11:53:03;;;;;;;13.50;12.43;;;21.50;99.90;;;;;;5109140;27;20449;-74
2022/10/23 11:55:31;;;;;;;14.20;12.77;;;21.40;99.90;;;;;;5107696;27;20460;-72
2022/10/23 11:58:30;;;;;;;13.17;11.93;;;21.40;99.90;;;;;;5110441;27;20461;-73
2022/10/23 12:01:02;;;;;;;13.20;12.20;;;22.00;99.90;;;;;;5108873;27;20493;-73
2022/10/23 12:03:35;;;;;;;13.30;12.17;;;21.80;99.90;;;;;;5112667;27;20484;-70
2022/10/23 12:06:05;;;;;;;12.80;11.83;;;22.10;99.90;;;;;;5114070;27;20919;-70
2022/10/23 12:08:37;;;;;;;13.03;12.17;;;22.20;99.90;;;;;;5111254;27;20454;-72
2022/10/23 12:11:04;;;;;;;13.87;12.50;;;22.10;99.90;;;;;;5110515;27;20464;-69
2022/10/23 12:13:45;;;;;;;12.57;11.87;;;22.00;99.90;;;;;;5107399;28;20468;-71
2022/10/23 12:16:13;;;;;;;14.17;13.20;;;22.20;99.90;;;;;;5109496;28;20893;-71
2022/10/23 12:18:51;;;;;;;21.00;12.70;;;22.10;99.90;;;;;;5111173;28;20499;-69
2022/10/23 12:21:21;;;;;;;19.17;14.20;;;22.10;99.90;;;;;;5113354;28;20569;-69
2022/10/23 12:24:12;;;;;;;15.13;13.60;;;21.70;99.90;;;;;;5107846;28;20891;-68
2022/10/23 12:26:53;;;;;;;14.43;13.00;;;21.60;99.90;;;;;;5107089;27;20820;-68
2022/10/23 12:29:30;;;;;;;17.87;12.73;;;21.50;99.90;;;;;;5108050;28;20456;-68
2022/10/23 12:32:04;;;;;;;14.00;12.23;;;21.40;99.90;;;;;;5109701;28;20866;-69
2022/10/23 12:34:42;;;;;;;17.60;13.00;;;21.20;99.90;;;;;;5109363;28;20461;-68
2022/10/23 12:37:35;;;;;;;14.80;12.73;;;21.40;99.90;;;;;;5104165;28;20951;-68
2022/10/23 12:40:08;;;;;;;22.80;12.83;;;21.40;99.90;;;;;;5104098;28;20463;-68
2022/10/23 12:42:36;;;;;;;17.80;14.07;;;21.30;99.90;;;;;;5117334;27;20453;-68
2022/10/23 12:45:06;;;;;;;15.03;13.37;;;21.20;99.90;;;;;;5115402;27;20489;-71
2022/10/23 12:47:33;;;;;;;20.50;13.30;;;21.10;99.90;;;;;;5115282;27;20467;-70
2022/10/23 12:50:00;;;;;;;16.60;12.70;;;21.00;99.90;;;;;;5115892;27;20492;-70
2022/10/23 12:52:27;;;;;;;16.50;13.00;;;21.00;99.90;;;;;;5113791;27;20460;-70